Terminal Aerodrome Forecast
Issued by NWS

Current Version | Previous Version | Graphics & Text | Print | Product List | Glossary On
Versions: 1 2 3 4 5 6 7 8 9 10 11 12 13 14 15 16 17 18 19 20 21 22 23 24 25
230
FTUS41 KRLX 021457 AAB
TAFCKB
TAF AMD
KCKB 021457Z 0215/0312 23011G17KT P6SM BKN025
     FM021800 25009KT P6SM BKN035
     FM022200 27007KT P6SM -SHRA VCTS OVC025CB
     FM030200 35003KT 4SM SHRA BR OVC007=

USA.gov is the U.S. government's official web portal to all federal, state and local government web resources and services.